createdAt,value
2022-08-07T00:02:35.285Z,25.20
2022-08-07T00:04:15.558Z,26.10
2022-08-07T00:06:51.296Z,24.85
2022-08-07T00:09:22.415Z,24.75
2022-08-07T00:11:55.239Z,24.88
2022-08-07T00:14:31.626Z,24.13
2022-08-07T00:17:02.618Z,25.05
2022-08-07T00:20:02.517Z,23.73
2022-08-07T00:22:42.362Z,24.08
2022-08-07T00:25:21.634Z,24.00
2022-08-07T00:27:56.515Z,23.63
2022-08-07T00:30:28.661Z,23.07
2022-08-07T00:32:59.111Z,24.20
2022-08-07T00:35:29.637Z,24.02
2022-08-07T00:37:59.962Z,22.85
2022-08-07T00:40:39.150Z,22.45
2022-08-07T00:44:02.097Z,22.65
2022-08-07T00:46:03.375Z,24.23
2022-08-07T00:48:42.643Z,22.42
2022-08-07T00:51:22.862Z,22.17
2022-08-07T00:54:08.051Z,22.20
2022-08-07T00:56:41.696Z,21.83
2022-08-07T00:59:10.802Z,22.38
2022-08-07T01:01:41.495Z,22.08
2022-08-07T01:04:24.679Z,24.67
2022-08-07T01:06:54.358Z,28.35
2022-08-07T01:10:04.030Z,32.05
2022-08-07T01:13:22.742Z,44.55
2022-08-07T01:16:58.805Z,77.63
2022-08-07T01:20:32.349Z,89.22
2022-08-07T01:24:02.419Z,97.80
2022-08-07T01:27:32.343Z,99.13
2022-08-07T01:30:59.551Z,109.05
2022-08-07T01:33:55.905Z,100.38
2022-08-07T01:36:52.871Z,110.13
2022-08-07T01:39:41.445Z,96.05
2022-08-07T01:42:56.897Z,94.47
2022-08-07T01:45:37.042Z,89.30
2022-08-07T01:48:21.111Z,87.45
2022-08-07T01:51:24.243Z,80.13
2022-08-07T01:54:12.540Z,83.22
2022-08-07T01:56:55.716Z,83.15
2022-08-07T01:59:31.070Z,73.80
2022-08-07T02:02:10.582Z,88.97
2022-08-07T02:04:52.668Z,88.65
2022-08-07T02:07:35.761Z,88.47
2022-08-07T02:10:16.828Z,91.18
2022-08-07T02:13:56.580Z,96.32
2022-08-07T02:16:33.436Z,100.82
2022-08-07T02:20:07.016Z,111.82
2022-08-07T02:22:00.028Z,107.82
2022-08-07T02:24:32.313Z,114.95
2022-08-07T02:27:03.806Z,112.63
2022-08-07T02:29:43.345Z,113.95
2022-08-07T02:32:15.532Z,115.70
2022-08-07T02:34:48.903Z,114.85
2022-08-07T02:37:36.793Z,112.55
2022-08-07T02:40:34.944Z,120.53
2022-08-07T02:43:08.008Z,107.82
2022-08-07T02:45:58.571Z,102.88
2022-08-07T02:48:32.137Z,105.47
2022-08-07T02:51:28.772Z,127.68
2022-08-07T02:54:03.970Z,108.45
2022-08-07T02:56:34.671Z,97.55
2022-08-07T02:59:09.171Z,95.03
2022-08-07T03:01:42.897Z,93.10
2022-08-07T03:04:23.726Z,93.97
2022-08-07T03:06:53.967Z,90.10
2022-08-07T03:09:43.869Z,90.93
2022-08-07T03:12:22.379Z,92.32
2022-08-07T03:15:02.419Z,89.90
2022-08-07T03:17:53.349Z,89.72
2022-08-07T03:20:27.647Z,92.85
2022-08-07T03:22:59.136Z,93.03
2022-08-07T03:25:32.466Z,95.68
2022-08-07T03:28:38.298Z,87.35
2022-08-07T03:31:24.414Z,88.50
2022-08-07T03:34:02.689Z,84.72
2022-08-07T03:36:46.617Z,86.43
2022-08-07T03:40:00.045Z,81.63
2022-08-07T03:42:09.803Z,81.47
2022-08-07T03:44:39.866Z,81.50
2022-08-07T03:47:14.423Z,79.10
2022-08-07T03:49:52.428Z,79.40
2022-08-07T03:52:30.922Z,81.78
2022-08-07T03:55:13.956Z,81.50
2022-08-07T03:58:33.181Z,79.75
2022-08-07T04:00:46.585Z,79.78
2022-08-07T04:03:23.065Z,75.35
2022-08-07T04:05:58.653Z,81.57
2022-08-07T04:08:30.382Z,81.57
2022-08-07T04:12:25.208Z,82.88
2022-08-07T04:14:33.099Z,82.75
2022-08-07T04:16:58.337Z,81.43
2022-08-07T04:19:51.254Z,81.50
2022-08-07T04:22:29.568Z,84.28
2022-08-07T04:25:08.775Z,80.88
2022-08-07T04:28:00.346Z,80.55
2022-08-07T04:30:43.860Z,79.18
2022-08-07T04:33:27.877Z,81.35
2022-08-07T04:35:58.076Z,79.05
2022-08-07T04:38:30.310Z,77.82
2022-08-07T04:41:00.214Z,76.20
2022-08-07T04:44:14.620Z,73.17
2022-08-07T04:46:59.639Z,75.27
2022-08-07T04:49:47.612Z,76.93
2022-08-07T04:58:13.809Z,75.40
2022-08-07T05:00:07.856Z,76.20
2022-08-07T05:02:16.911Z,77.03
2022-08-07T05:05:52.686Z,76.50
2022-08-07T05:08:13.169Z,78.63
2022-08-07T05:10:58.596Z,78.70
2022-08-07T05:14:53.976Z,78.75
2022-08-07T05:16:33.611Z,79.22
2022-08-07T05:19:17.323Z,79.65
2022-08-07T05:22:01.793Z,76.55
2022-08-07T05:24:44.830Z,83.18
2022-08-07T05:28:02.124Z,78.95
2022-08-07T05:30:06.659Z,82.18
2022-08-07T05:32:50.118Z,84.05
2022-08-07T05:35:23.800Z,80.38
2022-08-07T05:38:08.838Z,79.85
2022-08-07T05:40:50.290Z,81.85
2022-08-07T05:43:49.508Z,80.03
2022-08-07T05:46:13.645Z,77.40
2022-08-07T05:48:58.312Z,75.22
2022-08-07T05:51:33.287Z,76.65
2022-08-07T05:54:31.538Z,75.60
2022-08-07T05:57:10.659Z,72.35
2022-08-07T05:59:57.143Z,74.75
2022-08-07T06:02:36.033Z,71.88
2022-08-07T06:05:15.389Z,72.65
2022-08-07T06:08:13.362Z,72.35
2022-08-07T06:10:42.580Z,75.07
2022-08-07T06:13:18.963Z,73.05
2022-08-07T06:16:04.021Z,74.57
2022-08-07T06:18:33.806Z,71.50
2022-08-07T06:22:17.020Z,61.65
2022-08-07T06:24:45.991Z,57.67
2022-08-07T06:26:43.657Z,59.67
2022-08-07T06:29:30.293Z,67.03
2022-08-07T06:32:03.043Z,65.55
2022-08-07T06:34:34.080Z,55.47
2022-08-07T06:37:05.056Z,55.08
2022-08-07T06:40:16.204Z,56.00
2022-08-07T06:42:37.574Z,52.94
2022-08-07T06:45:23.120Z,52.72
2022-08-07T06:48:01.169Z,52.60
2022-08-07T06:50:47.712Z,53.45
2022-08-07T06:55:27.099Z,51.47
2022-08-07T06:56:49.367Z,52.60
2022-08-07T07:00:13.646Z,49.65
2022-08-07T07:02:53.496Z,48.17
2022-08-07T07:06:02.408Z,50.35
2022-08-07T07:08:18.591Z,49.85
2022-08-07T07:11:00.944Z,50.42
2022-08-07T07:13:55.441Z,48.85
2022-08-07T07:16:30.429Z,48.90
2022-08-07T07:19:56.262Z,49.28
2022-08-07T07:22:12.021Z,48.60
2022-08-07T07:25:02.766Z,47.00
2022-08-07T07:27:55.623Z,47.17
2022-08-07T07:30:37.887Z,46.85
2022-08-07T07:33:12.266Z,46.13
2022-08-07T07:36:04.555Z,48.22
2022-08-07T07:38:36.150Z,49.72
2022-08-07T07:41:09.448Z,46.40
2022-08-07T07:43:48.199Z,48.50
2022-08-07T07:46:54.140Z,49.63
2022-08-07T07:50:34.146Z,50.53
2022-08-07T07:52:27.578Z,50.65
2022-08-07T07:54:58.092Z,53.33
2022-08-07T07:57:43.728Z,55.55
2022-08-07T08:00:21.083Z,57.55
2022-08-07T08:03:08.506Z,57.42
2022-08-07T08:05:50.603Z,57.05
2022-08-07T08:08:36.967Z,58.05
2022-08-07T08:11:16.547Z,57.67
2022-08-07T08:14:01.402Z,61.15
2022-08-07T08:16:51.728Z,60.22
2022-08-07T08:20:18.853Z,59.05
2022-08-07T08:22:54.291Z,67.60
2022-08-07T08:27:20.484Z,60.50
2022-08-07T08:28:45.392Z,69.15
2022-08-07T08:31:22.859Z,65.72
2022-08-07T08:34:12.400Z,56.50
2022-08-07T08:36:58.460Z,58.22
2022-08-07T08:39:39.789Z,63.72
2022-08-07T08:42:46.298Z,61.83
2022-08-07T08:45:58.685Z,63.53
2022-08-07T08:48:38.555Z,63.72
2022-08-07T08:51:49.611Z,66.75
2022-08-07T08:54:44.736Z,64.80
2022-08-07T08:57:27.309Z,68.70
2022-08-07T09:00:11.494Z,66.70
2022-08-07T09:03:02.127Z,69.18
2022-08-07T09:05:59.743Z,73.88
2022-08-07T09:08:58.466Z,68.05
2022-08-07T09:11:54.164Z,67.32
2022-08-07T09:14:41.051Z,63.80
2022-08-07T09:17:59.516Z,68.70
2022-08-07T09:20:38.985Z,55.50
2022-08-07T09:24:54.123Z,55.28
2022-08-07T09:26:58.691Z,53.05
2022-08-07T09:30:04.319Z,49.50
2022-08-07T09:33:16.780Z,49.40
2022-08-07T09:36:09.860Z,47.58
2022-08-07T09:39:18.018Z,47.35
2022-08-07T09:42:23.065Z,43.28
2022-08-07T09:47:25.741Z,36.40
2022-08-07T09:48:18.985Z,35.28
2022-08-07T09:50:54.867Z,37.05
2022-08-07T09:53:55.116Z,35.45
2022-08-07T09:56:41.960Z,35.17
2022-08-07T09:59:31.082Z,35.65
2022-08-07T10:06:00.258Z,29.25
2022-08-07T10:09:15.187Z,27.40
2022-08-07T10:15:22.778Z,28.58
2022-08-07T10:18:10.847Z,28.75
2022-08-07T10:20:50.206Z,28.50
2022-08-07T10:23:19.286Z,23.85
2022-08-07T10:26:27.589Z,23.25
2022-08-07T10:32:37.100Z,23.17
2022-08-07T10:35:20.989Z,23.42
2022-08-07T10:38:33.106Z,18.90
2022-08-07T10:41:45.963Z,26.17
2022-08-07T10:44:37.886Z,24.20
2022-08-07T10:47:27.214Z,21.75
2022-08-07T10:50:15.686Z,19.08
2022-08-07T10:53:10.348Z,18.08
2022-08-07T10:55:44.703Z,17.63
2022-08-07T10:58:36.749Z,18.65
2022-08-07T11:01:15.282Z,19.63
2022-08-07T11:04:05.684Z,18.70
2022-08-07T11:07:02.138Z,18.85
2022-08-07T11:10:09.158Z,17.20
2022-08-07T11:13:02.228Z,18.05
2022-08-07T11:15:49.871Z,13.75
2022-08-07T11:18:35.742Z,16.08
2022-08-07T11:21:28.515Z,15.10
2022-08-07T11:28:02.572Z,14.55
2022-08-07T11:30:39.085Z,16.10
2022-08-07T11:37:03.556Z,14.80
2022-08-07T11:43:15.577Z,12.23
2022-08-07T11:45:54.587Z,12.30
2022-08-07T11:48:53.983Z,12.55
2022-08-07T11:51:57.714Z,12.18
2022-08-07T11:58:16.522Z,10.85
2022-08-07T12:04:54.408Z,11.05
2022-08-07T12:07:39.178Z,12.13
2022-08-07T12:10:31.988Z,11.90
2022-08-07T12:13:17.043Z,10.27
2022-08-07T12:16:05.986Z,12.37
2022-08-07T12:19:02.744Z,15.95
2022-08-07T12:22:39.103Z,11.30
2022-08-07T12:26:03.022Z,10.13
2022-08-07T12:28:52.935Z,10.60
2022-08-07T12:31:52.851Z,10.98
2022-08-07T12:34:36.434Z,9.57
2022-08-07T12:37:08.502Z,10.98
2022-08-07T12:39:51.278Z,11.95
2022-08-07T12:42:28.610Z,10.32
2022-08-07T12:45:09.819Z,10.35
2022-08-07T12:47:41.630Z,10.95
2022-08-07T12:50:33.985Z,11.85
2022-08-07T13:02:40.423Z,11.52
2022-08-07T13:06:03.283Z,13.82
2022-08-07T13:08:44.859Z,18.05
2022-08-07T13:14:38.887Z,14.73
2022-08-07T13:17:40.918Z,15.23
2022-08-07T13:20:46.951Z,13.40
2022-08-07T13:24:02.146Z,14.27
2022-08-07T13:26:33.071Z,13.88
2022-08-07T13:29:12.735Z,14.30
2022-08-07T13:31:55.086Z,14.05
2022-08-07T13:34:44.779Z,13.70
2022-08-07T13:37:41.074Z,12.82
2022-08-07T13:40:35.883Z,13.30
2022-08-07T13:43:16.155Z,14.07
2022-08-07T13:46:21.117Z,14.25
2022-08-07T13:48:58.760Z,13.60
2022-08-07T13:52:23.112Z,13.10
2022-08-07T13:54:33.602Z,13.30
2022-08-07T13:57:09.818Z,13.43
2022-08-07T13:59:44.269Z,14.13
2022-08-07T14:02:33.261Z,13.80
2022-08-07T14:05:06.931Z,16.80
2022-08-07T14:08:00.930Z,20.73
2022-08-07T14:10:43.713Z,17.50
2022-08-07T14:13:33.378Z,15.52
2022-08-07T14:16:15.416Z,15.40
2022-08-07T14:18:57.296Z,15.45
2022-08-07T14:22:04.222Z,15.65
2022-08-07T14:24:49.004Z,14.68
2022-08-07T14:28:10.274Z,14.30
2022-08-07T14:30:32.723Z,15.70
2022-08-07T14:33:05.346Z,14.65
2022-08-07T14:35:45.827Z,16.00
2022-08-07T14:38:33.312Z,15.43
2022-08-07T14:41:14.799Z,15.93
2022-08-07T14:43:56.931Z,16.48
2022-08-07T14:46:33.420Z,15.65
2022-08-07T14:54:54.110Z,15.82
2022-08-07T14:57:55.161Z,16.60
2022-08-07T15:00:29.669Z,15.63
2022-08-07T15:03:17.482Z,16.05
2022-08-07T15:05:54.289Z,14.93
2022-08-07T15:11:53.919Z,15.73
2022-08-07T15:14:25.418Z,16.85
2022-08-07T15:17:04.287Z,17.85
2022-08-07T15:22:37.838Z,17.20
2022-08-07T15:25:19.253Z,15.77
2022-08-07T15:28:04.092Z,16.13
2022-08-07T15:33:36.749Z,17.67
2022-08-07T15:37:04.174Z,18.23
2022-08-07T15:39:17.339Z,17.35
2022-08-07T15:42:44.320Z,17.98
2022-08-07T15:44:57.432Z,18.92
2022-08-07T15:48:00.152Z,18.25
2022-08-07T15:51:01.516Z,19.77
2022-08-07T15:53:51.750Z,18.90
2022-08-07T15:59:39.872Z,18.42
2022-08-07T16:02:28.909Z,18.13
2022-08-07T16:05:15.217Z,17.65
2022-08-07T16:08:33.333Z,18.45
2022-08-07T16:10:48.776Z,16.67
2022-08-07T16:13:58.684Z,18.30
2022-08-07T16:16:57.022Z,17.98
2022-08-07T16:20:02.762Z,16.15
2022-08-07T16:22:58.413Z,16.08
2022-08-07T16:25:54.982Z,17.20
2022-08-07T16:30:07.734Z,16.30
2022-08-07T16:32:03.760Z,16.42
2022-08-07T16:34:45.511Z,15.40
2022-08-07T16:41:22.219Z,17.63
2022-08-07T16:44:40.231Z,16.52
2022-08-07T16:47:30.785Z,16.23
2022-08-07T16:50:28.788Z,16.23
2022-08-07T16:53:55.263Z,16.30
2022-08-07T16:56:40.007Z,16.02
2022-08-07T16:59:46.003Z,16.73
2022-08-07T17:02:52.982Z,15.57
2022-08-07T17:06:28.440Z,16.23
2022-08-07T17:09:08.871Z,16.35
2022-08-07T17:12:01.363Z,15.38
2022-08-07T17:14:38.499Z,16.08
2022-08-07T17:17:21.624Z,15.32
2022-08-07T17:20:02.853Z,15.80
2022-08-07T17:23:03.010Z,14.50
2022-08-07T17:26:22.867Z,13.55
2022-08-07T17:30:16.238Z,14.68
2022-08-07T17:32:30.471Z,15.75
2022-08-07T17:35:49.931Z,13.68
2022-08-07T17:38:33.455Z,12.65
2022-08-07T17:42:04.580Z,13.90
2022-08-07T17:44:45.646Z,13.45
2022-08-07T17:47:38.422Z,14.50
2022-08-07T17:50:50.370Z,12.65
2022-08-07T17:54:02.280Z,12.27
2022-08-07T17:56:55.827Z,12.75
2022-08-07T17:59:41.776Z,12.85
2022-08-07T18:02:23.416Z,11.63
2022-08-07T18:05:21.374Z,13.00
2022-08-07T18:12:19.537Z,11.86
2022-08-07T18:14:38.184Z,12.23
2022-08-07T18:18:47.072Z,11.77
2022-08-07T18:21:07.461Z,11.15
2022-08-07T18:24:07.205Z,11.85
2022-08-07T18:26:57.624Z,11.93
2022-08-07T18:30:07.237Z,11.77
2022-08-07T18:33:12.129Z,12.48
2022-08-07T18:35:57.325Z,11.57
2022-08-07T18:38:58.005Z,11.85
2022-08-07T18:41:44.665Z,11.82
2022-08-07T18:48:02.644Z,10.60
2022-08-07T18:50:58.578Z,11.90
2022-08-07T18:53:45.421Z,9.88
2022-08-07T18:56:30.601Z,11.35
2022-08-07T18:59:47.608Z,10.98
2022-08-07T19:02:36.891Z,11.13
2022-08-07T19:05:22.907Z,11.35
2022-08-07T19:08:08.289Z,10.80
2022-08-07T19:10:51.205Z,11.32
2022-08-07T19:13:37.730Z,10.88
2022-08-07T19:17:01.161Z,10.32
2022-08-07T19:19:31.929Z,11.00
2022-08-07T19:22:11.250Z,10.83
2022-08-07T19:24:48.986Z,11.70
2022-08-07T19:28:58.377Z,11.15
2022-08-07T19:31:03.014Z,11.63
2022-08-07T19:33:13.172Z,10.57
2022-08-07T19:35:52.482Z,10.25
2022-08-07T19:38:25.677Z,10.90
2022-08-07T19:41:00.853Z,11.15
2022-08-07T19:43:49.333Z,11.00
2022-08-07T19:46:29.156Z,10.90
2022-08-07T19:49:05.962Z,10.07
2022-08-07T19:51:51.722Z,9.82
2022-08-07T19:54:35.358Z,10.63
2022-08-07T19:58:04.294Z,9.95
2022-08-07T20:00:54.240Z,10.05
2022-08-07T20:03:34.677Z,10.23
2022-08-07T20:06:15.706Z,10.40
2022-08-07T20:09:03.053Z,9.93
2022-08-07T20:12:22.911Z,10.18
2022-08-07T20:14:53.947Z,10.00
2022-08-07T20:17:31.377Z,9.57
2022-08-07T20:20:07.726Z,9.90
2022-08-07T20:22:41.690Z,9.53
2022-08-07T20:25:12.919Z,9.77
2022-08-07T20:27:57.922Z,9.10
2022-08-07T20:30:36.014Z,10.30
2022-08-07T20:33:24.503Z,10.32
2022-08-07T20:36:10.177Z,10.27
2022-08-07T20:38:59.569Z,9.88
2022-08-07T20:41:37.996Z,9.63
2022-08-07T20:44:12.911Z,9.30
2022-08-07T20:46:45.163Z,9.45
2022-08-07T20:50:01.249Z,9.50
2022-08-07T20:52:16.601Z,9.18
2022-08-07T20:54:53.801Z,9.63
2022-08-07T20:57:26.130Z,8.98
2022-08-07T21:00:10.431Z,9.20
2022-08-07T21:03:02.079Z,9.73
2022-08-07T21:06:04.022Z,9.30
2022-08-07T21:09:13.938Z,9.50
2022-08-07T21:11:50.977Z,9.05
2022-08-07T21:14:32.958Z,10.40
2022-08-07T21:18:20.783Z,9.15
2022-08-07T21:20:29.612Z,9.55
2022-08-07T21:23:08.210Z,8.99
2022-08-07T21:26:19.090Z,9.77
2022-08-07T21:29:03.648Z,8.93
2022-08-07T21:32:43.760Z,8.85
2022-08-07T21:34:52.207Z,9.55
2022-08-07T21:37:58.439Z,9.02
2022-08-07T21:40:46.041Z,8.90
2022-08-07T21:46:55.924Z,8.77
2022-08-07T21:50:02.900Z,8.52
2022-08-07T21:52:35.640Z,8.93
2022-08-07T21:55:29.916Z,8.30
2022-08-07T22:01:28.657Z,8.73
2022-08-07T22:04:22.344Z,9.15
2022-08-07T22:06:58.462Z,8.75
2022-08-07T22:09:37.986Z,8.32
2022-08-07T22:12:37.634Z,8.85
2022-08-07T22:16:42.361Z,8.20
2022-08-07T22:18:11.782Z,8.30
2022-08-07T22:21:02.300Z,8.05
2022-08-07T22:23:45.303Z,8.38
2022-08-07T22:26:21.391Z,8.38
2022-08-07T22:29:01.032Z,7.68
2022-08-07T22:32:03.395Z,8.32
2022-08-07T22:34:57.101Z,8.50
2022-08-07T22:38:04.150Z,8.20
2022-08-07T22:41:03.774Z,8.57
2022-08-07T22:43:57.100Z,8.65
2022-08-07T22:47:03.809Z,8.20
2022-08-07T22:50:09.461Z,8.15
2022-08-07T22:56:25.081Z,8.63
2022-08-07T22:59:20.216Z,8.40
2022-08-07T23:02:30.870Z,8.13
2022-08-07T23:06:14.650Z,8.65
2022-08-07T23:08:51.593Z,8.43
2022-08-07T23:11:46.152Z,7.72
2022-08-07T23:14:17.744Z,8.50
2022-08-07T23:17:26.859Z,8.68
2022-08-07T23:20:40.510Z,8.63
2022-08-07T23:24:06.954Z,8.02
2022-08-07T23:26:25.025Z,8.75
2022-08-07T23:29:17.089Z,8.45
2022-08-07T23:34:21.572Z,8.15
2022-08-07T23:35:50.120Z,7.57
2022-08-07T23:38:54.486Z,8.23
2022-08-07T23:42:01.408Z,8.50
2022-08-07T23:44:55.063Z,8.05
2022-08-07T23:47:49.782Z,8.70
2022-08-07T23:50:37.710Z,8.18
2022-08-07T23:55:58.376Z,8.57
